createdAt,value
2019-04-06T00:01:48.341Z,30.80
2019-04-06T00:04:20.073Z,27.10
2019-04-06T00:06:51.462Z,24.75
2019-04-06T00:09:23.211Z,24.72
2019-04-06T00:11:54.777Z,26.15
2019-04-06T00:14:26.564Z,28.87
2019-04-06T00:16:58.245Z,26.65
2019-04-06T00:19:29.388Z,27.62
2019-04-06T00:22:01.177Z,25.60
2019-04-06T00:24:32.859Z,27.05
2019-04-06T00:27:21.353Z,27.15
2019-04-06T00:29:53.010Z,29.63
2019-04-06T00:32:32.232Z,34.33
2019-04-06T00:35:03.909Z,38.53
2019-04-06T00:37:35.758Z,35.80
2019-04-06T00:40:07.408Z,33.20
2019-04-06T00:42:38.734Z,31.35
2019-04-06T00:45:10.524Z,33.15
2019-04-06T00:47:41.655Z,35.58
2019-04-06T00:50:12.933Z,35.05
2019-04-06T00:52:44.594Z,32.42
2019-04-06T00:55:16.099Z,35.68
2019-04-06T00:57:47.517Z,29.12
2019-04-06T01:00:19.433Z,35.70
2019-04-06T01:02:50.788Z,35.95
2019-04-06T01:05:22.709Z,34.00
2019-04-06T01:07:54.709Z,31.87
2019-04-06T01:10:25.801Z,41.58
2019-04-06T01:12:57.295Z,37.67
2019-04-06T01:15:28.897Z,36.93
2019-04-06T01:18:00.528Z,45.35
2019-04-06T01:20:31.867Z,46.75
2019-04-06T01:23:02.997Z,49.38
2019-04-06T01:25:35.619Z,48.75
2019-04-06T01:28:06.930Z,54.00
2019-04-06T01:30:38.592Z,56.02
2019-04-06T01:33:10.003Z,55.38
2019-04-06T01:35:41.480Z,58.25
2019-04-06T01:38:13.144Z,64.90
2019-04-06T01:40:44.698Z,60.43
2019-04-06T01:43:15.943Z,64.05
2019-04-06T01:45:47.500Z,74.42
2019-04-06T01:48:19.041Z,77.32
2019-04-06T01:50:50.594Z,71.82
2019-04-06T01:53:22.260Z,68.62
2019-04-06T01:55:53.813Z,74.23
2019-04-06T01:58:25.152Z,81.35
2019-04-06T02:00:58.032Z,82.20
2019-04-06T02:03:29.492Z,73.65
2019-04-06T02:06:01.363Z,66.47
2019-04-06T02:08:33.020Z,57.58
2019-04-06T02:11:04.203Z,60.85
2019-04-06T02:13:36.123Z,54.35
2019-04-06T02:16:07.575Z,55.52
2019-04-06T02:18:38.823Z,56.08
2019-04-06T02:21:10.057Z,54.70
2019-04-06T02:23:41.312Z,57.60
2019-04-06T02:26:13.093Z,55.58
2019-04-06T02:28:44.689Z,56.25
2019-04-06T02:31:20.266Z,61.20
2019-04-06T02:34:05.347Z,61.42
2019-04-06T02:36:38.126Z,60.70
2019-04-06T02:39:17.142Z,58.95
2019-04-06T02:41:53.132Z,59.83
2019-04-06T02:44:24.450Z,64.65
2019-04-06T02:46:55.795Z,53.83
2019-04-06T02:49:27.361Z,59.05
2019-04-06T02:51:59.741Z,58.30
2019-04-06T02:54:32.310Z,57.13
2019-04-06T02:57:03.663Z,52.75
2019-04-06T02:59:34.805Z,52.60
2019-04-06T03:02:06.549Z,55.52
2019-04-06T03:04:37.932Z,56.00
2019-04-06T03:07:09.455Z,60.55
2019-04-06T03:09:41.226Z,54.30
2019-04-06T03:12:12.774Z,53.48
2019-04-06T03:14:44.921Z,54.03
2019-04-06T03:17:16.387Z,56.23
2019-04-06T03:19:47.875Z,51.57
2019-04-06T03:22:19.792Z,52.97
2019-04-06T03:24:50.950Z,49.80
2019-04-06T03:27:22.504Z,51.20
2019-04-06T03:29:58.355Z,51.13
2019-04-06T03:32:27.438Z,59.20
2019-04-06T03:34:58.966Z,63.78
2019-04-06T03:37:30.354Z,64.70
2019-04-06T03:40:01.809Z,66.28
2019-04-06T03:42:33.211Z,83.52
2019-04-06T03:45:06.991Z,84.20
2019-04-06T03:47:38.617Z,86.82
2019-04-06T03:50:10.997Z,84.52
2019-04-06T03:52:42.235Z,79.10
2019-04-06T03:55:13.833Z,82.17
2019-04-06T03:57:45.447Z,70.78
2019-04-06T04:00:16.579Z,48.48
2019-04-06T04:02:48.303Z,45.65
2019-04-06T04:05:19.877Z,47.08
2019-04-06T04:07:51.543Z,52.73
2019-04-06T04:10:34.731Z,32.78
2019-04-06T04:13:06.247Z,44.05
2019-04-06T04:15:38.124Z,44.10
2019-04-06T04:18:09.683Z,39.75
2019-04-06T04:20:40.979Z,42.83
2019-04-06T04:23:12.543Z,49.25
2019-04-06T04:25:44.022Z,85.47
2019-04-06T04:28:15.535Z,101.62
2019-04-06T04:30:47.003Z,103.83
2019-04-06T04:33:18.802Z,102.47
2019-04-06T04:35:50.334Z,109.42
2019-04-06T04:38:21.666Z,100.35
2019-04-06T04:40:53.539Z,99.97
2019-04-06T04:43:25.965Z,103.65
2019-04-06T04:45:57.572Z,98.67
2019-04-06T04:48:29.317Z,96.45
2019-04-06T04:51:01.140Z,101.10
2019-04-06T04:53:32.524Z,100.85
2019-04-06T04:56:03.873Z,100.18
2019-04-06T04:58:35.435Z,103.35
2019-04-06T05:01:06.778Z,96.97
2019-04-06T05:03:38.371Z,102.47
2019-04-06T05:06:09.858Z,116.37
2019-04-06T05:08:41.434Z,118.72
2019-04-06T05:11:13.120Z,113.45
2019-04-06T05:13:44.745Z,109.92
2019-04-06T05:16:16.115Z,117.67
2019-04-06T05:18:47.537Z,112.45
2019-04-06T05:21:18.979Z,95.80
2019-04-06T05:23:50.534Z,93.90
2019-04-06T05:26:22.157Z,88.17
2019-04-06T05:28:53.871Z,72.20
2019-04-06T05:31:25.914Z,74.17
2019-04-06T05:33:57.377Z,79.00
2019-04-06T05:36:29.581Z,64.67
2019-04-06T05:39:01.192Z,61.80
2019-04-06T05:41:32.946Z,53.55
2019-04-06T05:44:04.101Z,45.95
2019-04-06T05:46:35.760Z,53.17
2019-04-06T05:49:07.241Z,46.13
2019-04-06T05:51:38.870Z,49.53
2019-04-06T05:54:10.772Z,47.50
2019-04-06T05:56:42.127Z,44.27
2019-04-06T05:59:13.775Z,48.33
2019-04-06T06:01:45.286Z,52.20
2019-04-06T06:04:16.642Z,44.48
2019-04-06T06:06:48.185Z,28.40
2019-04-06T06:09:19.934Z,40.33
2019-04-06T06:11:51.431Z,32.27
2019-04-06T06:14:22.963Z,34.53
2019-04-06T06:16:54.618Z,29.95
2019-04-06T06:19:25.688Z,34.13
2019-04-06T06:21:57.507Z,37.10
2019-04-06T06:24:28.653Z,44.23
2019-04-06T06:27:00.500Z,51.92
2019-04-06T06:29:31.960Z,40.73
2019-04-06T06:32:04.034Z,27.50
2019-04-06T06:34:35.264Z,35.60
2019-04-06T06:37:06.663Z,67.08
2019-04-06T06:39:38.377Z,38.73
2019-04-06T06:42:17.719Z,30.50
2019-04-06T06:44:48.490Z,27.25
2019-04-06T06:47:20.214Z,32.25
2019-04-06T06:49:51.564Z,24.18
2019-04-06T06:52:23.318Z,24.92
2019-04-06T06:54:54.799Z,29.10
2019-04-06T06:57:26.630Z,32.67
2019-04-06T06:59:58.118Z,22.87
2019-04-06T07:02:29.824Z,27.17
2019-04-06T07:05:01.381Z,25.27
2019-04-06T07:07:34.341Z,24.00
2019-04-06T07:10:07.839Z,28.10
2019-04-06T07:12:39.332Z,19.82
2019-04-06T07:15:10.789Z,23.77
2019-04-06T07:17:42.550Z,24.43
2019-04-06T07:20:13.802Z,20.80
2019-04-06T07:22:45.437Z,26.05
2019-04-06T07:25:16.567Z,23.32
2019-04-06T07:27:49.168Z,23.05
2019-04-06T07:30:20.916Z,24.10
2019-04-06T07:32:55.156Z,25.65
2019-04-06T07:35:26.068Z,22.52
2019-04-06T07:37:57.419Z,24.72
2019-04-06T07:40:28.945Z,26.25
2019-04-06T07:43:00.309Z,21.80
2019-04-06T07:45:31.875Z,27.20
2019-04-06T07:48:03.519Z,22.90
2019-04-06T07:50:35.185Z,17.30
2019-04-06T07:53:06.545Z,24.70
2019-04-06T07:55:37.882Z,21.00
2019-04-06T07:58:09.667Z,24.07
2019-04-06T08:00:40.970Z,14.47
2019-04-06T08:03:12.330Z,19.93
2019-04-06T08:05:43.970Z,24.72
2019-04-06T08:08:15.518Z,21.75
2019-04-06T08:10:47.205Z,21.10
2019-04-06T08:13:18.431Z,15.40
2019-04-06T08:15:50.207Z,18.57
2019-04-06T08:18:21.592Z,20.40
2019-04-06T08:20:53.098Z,17.65
2019-04-06T08:23:24.538Z,16.48
2019-04-06T08:25:56.402Z,20.97
2019-04-06T08:28:28.183Z,21.62
2019-04-06T08:31:00.487Z,22.58
2019-04-06T08:33:33.846Z,23.87
2019-04-06T08:36:06.976Z,22.27
2019-04-06T08:38:38.795Z,16.32
2019-04-06T08:41:10.281Z,19.50
2019-04-06T08:43:41.968Z,16.17
2019-04-06T08:46:13.438Z,20.57
2019-04-06T08:48:45.662Z,17.15
2019-04-06T08:51:20.773Z,17.37
2019-04-06T08:53:52.126Z,18.35
2019-04-06T08:56:24.176Z,21.17
2019-04-06T08:58:56.143Z,18.92
2019-04-06T09:01:27.288Z,18.63
2019-04-06T09:03:58.993Z,15.70
2019-04-06T09:06:30.331Z,18.98
2019-04-06T09:09:02.380Z,15.20
2019-04-06T09:11:34.613Z,13.75
2019-04-06T09:14:08.063Z,13.20
2019-04-06T09:16:40.904Z,16.10
2019-04-06T09:19:12.568Z,13.57
2019-04-06T09:21:44.284Z,17.15
2019-04-06T09:24:15.494Z,14.60
2019-04-06T09:26:48.471Z,14.30
2019-04-06T09:29:24.118Z,16.15
2019-04-06T09:31:53.434Z,14.85
2019-04-06T09:34:24.979Z,16.02
2019-04-06T09:36:56.703Z,17.42
2019-04-06T09:39:28.463Z,16.65
2019-04-06T09:42:00.436Z,18.15
2019-04-06T09:44:36.812Z,16.48
2019-04-06T09:47:09.899Z,17.05
2019-04-06T09:49:45.744Z,17.02
2019-04-06T09:52:18.516Z,13.53
2019-04-06T09:54:54.175Z,20.23
2019-04-06T09:57:32.896Z,14.28
2019-04-06T10:00:12.219Z,14.55
2019-04-06T10:03:00.500Z,14.93
2019-04-06T10:05:39.914Z,16.85
2019-04-06T10:08:16.793Z,16.52
2019-04-06T10:10:49.573Z,16.55
2019-04-06T10:13:25.541Z,20.33
2019-04-06T10:16:01.478Z,16.00
2019-04-06T10:18:40.512Z,16.82
2019-04-06T10:21:29.790Z,18.60
2019-04-06T10:24:05.655Z,17.17
2019-04-06T10:26:39.208Z,18.73
2019-04-06T10:29:14.894Z,19.65
2019-04-06T10:31:47.911Z,20.55
2019-04-06T10:34:39.035Z,25.12
2019-04-06T10:37:14.834Z,18.15
2019-04-06T10:39:53.918Z,18.32
2019-04-06T10:42:35.662Z,17.98
2019-04-06T10:45:25.876Z,21.12
2019-04-06T10:48:11.127Z,15.50
2019-04-06T10:50:44.326Z,17.48
2019-04-06T10:53:30.013Z,15.25
2019-04-06T10:56:03.049Z,18.32
2019-04-06T10:58:54.625Z,17.55
2019-04-06T11:01:33.882Z,17.77
2019-04-06T11:04:12.925Z,16.85
2019-04-06T11:06:46.625Z,17.77
2019-04-06T11:09:25.966Z,22.70
2019-04-06T11:12:14.462Z,20.30
2019-04-06T11:14:47.806Z,20.37
2019-04-06T11:17:37.196Z,16.65
2019-04-06T11:20:13.365Z,18.47
2019-04-06T11:23:03.204Z,18.43
2019-04-06T11:25:54.903Z,17.87
2019-04-06T11:28:28.185Z,14.98
2019-04-06T11:31:17.486Z,16.87
2019-04-06T11:33:57.266Z,14.20
2019-04-06T11:36:39.314Z,16.60
2019-04-06T11:39:12.747Z,16.12
2019-04-06T11:42:06.309Z,17.17
2019-04-06T11:44:45.614Z,14.93
2019-04-06T11:47:30.909Z,16.00
2019-04-06T11:50:04.308Z,19.32
2019-04-06T11:52:44.695Z,18.90
2019-04-06T11:55:24.083Z,17.23
2019-04-06T11:58:15.546Z,21.93
2019-04-06T12:01:01.307Z,17.35
2019-04-06T12:03:34.630Z,18.60
2019-04-06T12:06:08.019Z,16.62
2019-04-06T12:08:44.103Z,15.65
2019-04-06T12:11:17.292Z,15.13
2019-04-06T12:13:51.886Z,15.95
2019-04-06T12:16:40.728Z,15.83
2019-04-06T12:19:20.268Z,17.45
2019-04-06T12:21:56.067Z,15.78
2019-04-06T12:24:45.560Z,16.40
2019-04-06T12:27:24.432Z,15.75
2019-04-06T12:29:57.620Z,18.45
2019-04-06T12:32:36.742Z,17.27
2019-04-06T12:35:09.939Z,17.35
2019-04-06T12:37:46.019Z,14.33
2019-04-06T12:40:35.363Z,15.40
2019-04-06T12:43:11.105Z,14.25
2019-04-06T12:45:44.123Z,16.55
2019-04-06T12:48:17.343Z,17.83
2019-04-06T12:50:50.535Z,18.30
2019-04-06T12:53:35.552Z,17.90
2019-04-06T12:56:11.527Z,17.62
2019-04-06T12:59:02.414Z,15.43
2019-04-06T13:01:41.246Z,15.03
2019-04-06T13:04:20.168Z,20.55
2019-04-06T13:07:11.787Z,20.85
2019-04-06T13:10:00.989Z,16.40
2019-04-06T13:12:42.894Z,18.60
2019-04-06T13:15:25.050Z,18.05
2019-04-06T13:18:10.671Z,17.90
2019-04-06T13:20:58.795Z,16.05
2019-04-06T13:23:33.176Z,14.85
2019-04-06T13:26:09.042Z,16.27
2019-04-06T13:28:42.023Z,17.80
2019-04-06T13:31:15.418Z,18.52
2019-04-06T13:33:54.717Z,16.77
2019-04-06T13:36:46.351Z,19.70
2019-04-06T13:39:25.228Z,15.80
2019-04-06T13:42:04.565Z,17.30
2019-04-06T13:44:37.294Z,18.27
2019-04-06T13:47:16.169Z,15.23
2019-04-06T13:50:01.219Z,15.18
2019-04-06T13:52:36.779Z,15.32
2019-04-06T13:55:18.899Z,14.68
2019-04-06T13:57:51.979Z,16.87
2019-04-06T14:00:41.349Z,23.50
2019-04-06T14:03:29.323Z,18.95
2019-04-06T14:06:07.102Z,16.10
2019-04-06T14:08:40.164Z,17.15
2019-04-06T14:11:19.615Z,15.78
2019-04-06T14:13:53.095Z,16.95
2019-04-06T14:16:42.352Z,19.00
2019-04-06T14:19:18.855Z,17.32
2019-04-06T14:22:01.437Z,15.23
2019-04-06T14:24:51.041Z,16.73
2019-04-06T14:27:26.784Z,15.25
2019-04-06T14:30:08.795Z,12.82
2019-04-06T14:32:54.091Z,17.05
2019-04-06T14:35:39.137Z,19.60
2019-04-06T14:38:25.446Z,19.57
2019-04-06T14:41:04.490Z,15.93
2019-04-06T14:43:37.860Z,16.07
2019-04-06T14:46:23.752Z,18.97
2019-04-06T14:49:10.323Z,13.43
2019-04-06T14:51:50.248Z,18.62
2019-04-06T14:54:26.215Z,15.32
2019-04-06T14:56:58.205Z,18.70
2019-04-06T14:59:34.426Z,15.72
2019-04-06T15:02:07.559Z,15.30
2019-04-06T15:04:47.000Z,18.32
2019-04-06T15:07:22.979Z,14.78
2019-04-06T15:09:58.730Z,15.75
2019-04-06T15:12:34.527Z,15.50
2019-04-06T15:15:18.626Z,16.45
2019-04-06T15:17:51.519Z,17.15
2019-04-06T15:20:39.502Z,16.15
2019-04-06T15:23:18.768Z,14.50
2019-04-06T15:26:01.223Z,15.40
2019-04-06T15:28:37.161Z,19.77
2019-04-06T15:31:13.357Z,14.98
2019-04-06T15:34:06.070Z,42.60
2019-04-06T15:36:42.028Z,19.77
2019-04-06T15:39:33.783Z,16.70
2019-04-06T15:42:09.505Z,15.83
2019-04-06T15:44:46.071Z,18.62
2019-04-06T15:47:34.251Z,17.90
2019-04-06T15:50:24.612Z,19.48
2019-04-06T15:52:57.453Z,23.55
2019-04-06T15:55:30.725Z,22.93
2019-04-06T15:58:07.306Z,19.55
2019-04-06T16:00:43.791Z,21.12
2019-04-06T16:03:19.783Z,21.45
2019-04-06T16:06:07.926Z,19.92
2019-04-06T16:08:50.485Z,23.12
2019-04-06T16:11:23.838Z,15.18
2019-04-06T16:14:06.545Z,17.05
2019-04-06T16:16:51.851Z,17.25
2019-04-06T16:19:40.427Z,20.57
2019-04-06T16:22:13.886Z,19.62
2019-04-06T16:24:50.419Z,22.85
2019-04-06T16:27:42.541Z,20.68
2019-04-06T16:30:29.002Z,22.80
2019-04-06T16:33:08.960Z,23.62
2019-04-06T16:35:51.135Z,23.30
2019-04-06T16:38:40.237Z,24.50
2019-04-06T16:41:29.889Z,22.25
2019-04-06T16:44:02.964Z,21.57
2019-04-06T16:46:54.734Z,27.45
2019-04-06T16:49:30.446Z,25.27
2019-04-06T16:52:06.914Z,25.43
2019-04-06T16:54:45.589Z,26.75
2019-04-06T16:57:21.786Z,20.88
2019-04-06T16:59:58.474Z,30.60
2019-04-06T17:02:37.796Z,23.18
2019-04-06T17:05:13.671Z,18.53
2019-04-06T17:07:46.546Z,24.23
2019-04-06T17:10:35.884Z,21.60
2019-04-06T17:13:20.907Z,23.40
2019-04-06T17:16:00.737Z,22.48
2019-04-06T17:18:49.086Z,21.20
2019-04-06T17:21:40.087Z,23.18
2019-04-06T17:24:14.016Z,23.25
2019-04-06T17:26:50.351Z,23.87
2019-04-06T17:29:23.655Z,23.30
2019-04-06T17:32:05.859Z,23.05
2019-04-06T17:34:38.605Z,22.15
2019-04-06T17:37:12.277Z,23.22
2019-04-06T17:40:01.979Z,23.65
2019-04-06T17:42:39.425Z,21.62
2019-04-06T17:45:27.592Z,25.68
2019-04-06T17:48:04.486Z,28.52
2019-04-06T17:50:55.545Z,25.92
2019-04-06T17:53:37.880Z,29.18
2019-04-06T17:56:16.888Z,23.92
2019-04-06T17:59:08.731Z,28.55
2019-04-06T18:01:47.828Z,29.20
2019-04-06T18:04:30.045Z,24.60
2019-04-06T18:07:18.287Z,28.07
2019-04-06T18:09:54.234Z,26.85
2019-04-06T18:12:44.885Z,26.30
2019-04-06T18:15:16.533Z,26.43
2019-04-06T18:17:48.259Z,27.03
2019-04-06T18:20:19.670Z,26.27
2019-04-06T18:22:50.956Z,31.05
2019-04-06T18:25:22.511Z,25.80
2019-04-06T18:27:53.545Z,27.70
2019-04-06T18:30:25.973Z,27.13
2019-04-06T18:33:03.295Z,30.50
2019-04-06T18:35:35.177Z,25.75
2019-04-06T18:38:14.847Z,23.67
2019-04-06T18:40:46.166Z,27.13
2019-04-06T18:43:17.480Z,26.97
2019-04-06T18:45:49.272Z,26.37
2019-04-06T18:48:20.447Z,24.92
2019-04-06T18:50:51.879Z,27.90
2019-04-06T18:53:23.806Z,25.55
2019-04-06T18:55:56.036Z,26.93
2019-04-06T18:58:27.805Z,27.57
2019-04-06T19:00:59.530Z,27.13
2019-04-06T19:03:31.281Z,29.57
2019-04-06T19:06:02.726Z,28.85
2019-04-06T19:08:34.303Z,23.77
2019-04-06T19:11:06.975Z,27.80
2019-04-06T19:13:39.009Z,28.95
2019-04-06T19:16:11.656Z,26.45
2019-04-06T19:18:43.363Z,28.42
2019-04-06T19:21:14.849Z,26.27
2019-04-06T19:23:46.465Z,26.30
2019-04-06T19:26:18.739Z,29.70
2019-04-06T19:28:50.431Z,24.92
2019-04-06T19:31:21.962Z,23.22
2019-04-06T19:33:53.702Z,31.85
2019-04-06T19:36:24.837Z,26.68
2019-04-06T19:38:56.605Z,25.10
2019-04-06T19:41:27.952Z,24.00
2019-04-06T19:43:59.999Z,27.67
2019-04-06T19:46:31.298Z,25.75
2019-04-06T19:49:02.911Z,25.02
2019-04-06T19:51:34.194Z,25.00
2019-04-06T19:54:06.470Z,29.23
2019-04-06T19:56:38.581Z,26.80
2019-04-06T19:59:12.820Z,30.17
2019-04-06T20:01:43.455Z,26.95
2019-04-06T20:04:15.064Z,28.85
2019-04-06T20:06:46.652Z,31.87
2019-04-06T20:09:18.619Z,26.57
2019-04-06T20:11:50.067Z,30.83
2019-04-06T20:14:21.916Z,25.85
2019-04-06T20:16:53.199Z,28.70
2019-04-06T20:19:25.146Z,28.75
2019-04-06T20:21:56.621Z,31.90
2019-04-06T20:24:28.351Z,29.98
2019-04-06T20:27:00.427Z,27.35
2019-04-06T20:29:32.829Z,30.92
2019-04-06T20:32:05.520Z,31.27
2019-04-06T20:34:36.923Z,28.27
2019-04-06T20:37:08.427Z,33.55
2019-04-06T20:39:39.745Z,29.45
2019-04-06T20:42:11.269Z,29.50
2019-04-06T20:44:42.640Z,30.32
2019-04-06T20:47:14.149Z,30.30
2019-04-06T20:49:46.291Z,27.98
2019-04-06T20:52:18.292Z,31.15
2019-04-06T20:54:49.762Z,31.20
2019-04-06T20:57:21.109Z,31.65
2019-04-06T20:59:52.342Z,29.18
2019-04-06T21:02:24.009Z,31.62
2019-04-06T21:04:55.151Z,28.47
2019-04-06T21:07:26.545Z,27.60
2019-04-06T21:09:58.267Z,33.00
2019-04-06T21:12:29.609Z,33.40
2019-04-06T21:15:01.105Z,27.10
2019-04-06T21:17:33.501Z,31.55
2019-04-06T21:20:09.482Z,27.37
2019-04-06T21:22:41.852Z,29.40
2019-04-06T21:25:13.612Z,28.25
2019-04-06T21:27:44.945Z,32.30
2019-04-06T21:30:16.318Z,28.30
2019-04-06T21:32:48.028Z,32.93
2019-04-06T21:35:20.450Z,32.30
2019-04-06T21:37:52.777Z,30.15
2019-04-06T21:40:25.065Z,28.83
2019-04-06T21:42:56.685Z,31.27
2019-04-06T21:45:28.672Z,31.20
2019-04-06T21:48:00.506Z,32.05
2019-04-06T21:50:32.221Z,33.88
2019-04-06T21:53:03.893Z,31.40
2019-04-06T21:55:35.657Z,31.17
2019-04-06T21:58:07.331Z,34.30
2019-04-06T22:00:43.602Z,32.03
2019-04-06T22:03:15.621Z,35.88
2019-04-06T22:05:48.785Z,31.85
2019-04-06T22:08:20.450Z,29.77
2019-04-06T22:10:52.785Z,34.55
2019-04-06T22:13:24.953Z,29.70
2019-04-06T22:15:56.164Z,32.70
2019-04-06T22:18:28.249Z,33.10
2019-04-06T22:20:59.605Z,31.55
2019-04-06T22:23:41.652Z,30.77
2019-04-06T22:26:04.549Z,32.70
2019-04-06T22:28:36.658Z,32.73
2019-04-06T22:31:08.196Z,30.43
2019-04-06T22:33:39.898Z,34.27
2019-04-06T22:36:11.040Z,34.87
2019-04-06T22:38:42.490Z,32.42
2019-04-06T22:41:14.977Z,38.13
2019-04-06T22:43:46.945Z,33.08
2019-04-06T22:46:18.503Z,33.53
2019-04-06T22:48:49.955Z,36.50
2019-04-06T22:51:21.921Z,36.42
2019-04-06T22:53:53.153Z,32.35
2019-04-06T22:56:25.009Z,33.53
2019-04-06T22:58:56.253Z,31.25
2019-04-06T23:01:28.924Z,31.00
2019-04-06T23:04:07.862Z,33.10
2019-04-06T23:06:47.021Z,37.25
2019-04-06T23:09:18.391Z,31.97
2019-04-06T23:11:50.425Z,33.90
2019-04-06T23:14:22.463Z,35.40
2019-04-06T23:16:54.228Z,31.75
2019-04-06T23:19:25.989Z,35.73
2019-04-06T23:21:57.565Z,36.48
2019-04-06T23:24:29.750Z,36.48
2019-04-06T23:27:01.364Z,35.55
2019-04-06T23:29:32.794Z,36.10
2019-04-06T23:32:04.372Z,32.93
2019-04-06T23:34:36.192Z,35.25
2019-04-06T23:37:08.364Z,32.40
2019-04-06T23:39:40.258Z,40.75
2019-04-06T23:42:11.811Z,35.83
2019-04-06T23:44:44.338Z,37.13
2019-04-06T23:47:16.517Z,35.55
2019-04-06T23:49:48.103Z,34.38
2019-04-06T23:52:19.757Z,31.93
2019-04-06T23:54:52.026Z,33.70
2019-04-06T23:57:23.816Z,32.00
2019-04-06T23:59:55.471Z,35.73
